sensor_id;sensor_type;location;lat;lon;timestamp;temperature;humidity
9403;DHT22;4741;49.834;10.740;2022-08-21T00:00:13;16.20;99.90
9403;DHT22;4741;49.834;10.740;2022-08-21T00:02:44;16.20;99.90
9403;DHT22;4741;49.834;10.740;2022-08-21T00:05:13;16.10;99.90
9403;DHT22;4741;49.834;10.740;2022-08-21T00:07:39;16.00;99.90
9403;DHT22;4741;49.834;10.740;2022-08-21T00:10:06;17.70;99.90
9403;DHT22;4741;49.834;10.740;2022-08-21T00:12:33;16.30;99.90
9403;DHT22;4741;49.834;10.740;2022-08-21T00:14:59;18.40;99.90
9403;DHT22;4741;49.834;10.740;2022-08-21T00:17:26;15.40;99.90
9403;DHT22;4741;49.834;10.740;2022-08-21T00:19:53;16.10;99.90
9403;DHT22;4741;49.834;10.740;2022-08-21T00:22:19;15.70;99.90
9403;DHT22;4741;49.834;10.740;2022-08-21T00:24:46;16.00;99.90
9403;DHT22;4741;49.834;10.740;2022-08-21T00:27:13;15.80;99.90
9403;DHT22;4741;49.834;10.740;2022-08-21T00:29:39;15.50;99.90
9403;DHT22;4741;49.834;10.740;2022-08-21T00:32:06;15.60;99.90
9403;DHT22;4741;49.834;10.740;2022-08-21T00:34:33;16.00;99.90
9403;DHT22;4741;49.834;10.740;2022-08-21T00:37:00;15.60;99.90
9403;DHT22;4741;49.834;10.740;2022-08-21T00:39:26;15.40;99.90
9403;DHT22;4741;49.834;10.740;2022-08-21T00:44:20;16.10;99.90
9403;DHT22;4741;49.834;10.740;2022-08-21T00:46:47;15.80;99.90
9403;DHT22;4741;49.834;10.740;2022-08-21T00:49:13;16.20;99.90
9403;DHT22;4741;49.834;10.740;2022-08-21T00:54:07;16.30;99.90
9403;DHT22;4741;49.834;10.740;2022-08-21T00:56:45;17.00;99.90
9403;DHT22;4741;49.834;10.740;2022-08-21T00:59:13;17.70;99.90
9403;DHT22;4741;49.834;10.740;2022-08-21T01:01:40;15.60;99.90
9403;DHT22;4741;49.834;10.740;2022-08-21T01:04:07;17.20;99.90
9403;DHT22;4741;49.834;10.740;2022-08-21T01:06:34;15.20;99.90
9403;DHT22;4741;49.834;10.740;2022-08-21T01:09:02;15.80;99.90
9403;DHT22;4741;49.834;10.740;2022-08-21T01:11:28;17.00;99.90
9403;DHT22;4741;49.834;10.740;2022-08-21T01:13:55;15.50;99.90
9403;DHT22;4741;49.834;10.740;2022-08-21T01:16:22;15.60;99.90
9403;DHT22;4741;49.834;10.740;2022-08-21T01:18:49;16.40;99.90
9403;DHT22;4741;49.834;10.740;2022-08-21T01:21:24;15.40;99.90
9403;DHT22;4741;49.834;10.740;2022-08-21T01:23:54;16.20;99.90
9403;DHT22;4741;49.834;10.740;2022-08-21T01:26:25;16.10;99.90
9403;DHT22;4741;49.834;10.740;2022-08-21T01:29:07;17.20;99.90
9403;DHT22;4741;49.834;10.740;2022-08-21T01:31:36;16.00;99.90
9403;DHT22;4741;49.834;10.740;2022-08-21T01:34:03;16.60;99.90
9403;DHT22;4741;49.834;10.740;2022-08-21T01:36:31;16.90;99.90
9403;DHT22;4741;49.834;10.740;2022-08-21T01:38:58;15.10;99.90
9403;DHT22;4741;49.834;10.740;2022-08-21T01:41:25;15.40;99.90
9403;DHT22;4741;49.834;10.740;2022-08-21T01:48:45;15.90;99.90
9403;DHT22;4741;49.834;10.740;2022-08-21T01:51:12;15.90;99.90
9403;DHT22;4741;49.834;10.740;2022-08-21T01:56:07;15.90;99.90
9403;DHT22;4741;49.834;10.740;2022-08-21T01:58:41;15.30;99.90
9403;DHT22;4741;49.834;10.740;2022-08-21T02:01:08;16.10;99.90
9403;DHT22;4741;49.834;10.740;2022-08-21T02:03:36;15.20;99.90
9403;DHT22;4741;49.834;10.740;2022-08-21T02:06:03;17.50;99.90
9403;DHT22;4741;49.834;10.740;2022-08-21T02:08:30;16.00;99.90
9403;DHT22;4741;49.834;10.740;2022-08-21T02:10:57;17.00;99.90
9403;DHT22;4741;49.834;10.740;2022-08-21T02:13:24;15.20;99.90
9403;DHT22;4741;49.834;10.740;2022-08-21T02:15:50;15.10;99.90
9403;DHT22;4741;49.834;10.740;2022-08-21T02:18:17;15.10;99.90
9403;DHT22;4741;49.834;10.740;2022-08-21T02:20:45;15.90;99.90
9403;DHT22;4741;49.834;10.740;2022-08-21T02:23:13;15.30;99.90
9403;DHT22;4741;49.834;10.740;2022-08-21T02:25:40;16.00;99.90
9403;DHT22;4741;49.834;10.740;2022-08-21T02:28:07;15.30;99.90
9403;DHT22;4741;49.834;10.740;2022-08-21T02:30:36;15.00;99.90
9403;DHT22;4741;49.834;10.740;2022-08-21T02:33:07;16.20;99.90
9403;DHT22;4741;49.834;10.740;2022-08-21T02:35:34;15.40;99.90
9403;DHT22;4741;49.834;10.740;2022-08-21T02:38:02;16.40;99.90
9403;DHT22;4741;49.834;10.740;2022-08-21T02:40:30;15.70;99.90
9403;DHT22;4741;49.834;10.740;2022-08-21T02:42:57;15.60;99.90
9403;DHT22;4741;49.834;10.740;2022-08-21T02:47:53;16.00;99.90
9403;DHT22;4741;49.834;10.740;2022-08-21T02:50:22;15.60;99.90
9403;DHT22;4741;49.834;10.740;2022-08-21T02:55:21;15.60;99.90
9403;DHT22;4741;49.834;10.740;2022-08-21T02:57:48;14.90;99.90
9403;DHT22;4741;49.834;10.740;2022-08-21T03:00:15;15.50;99.90
9403;DHT22;4741;49.834;10.740;2022-08-21T03:02:42;16.30;99.90
9403;DHT22;4741;49.834;10.740;2022-08-21T03:07:37;15.40;99.90
9403;DHT22;4741;49.834;10.740;2022-08-21T03:10:03;15.40;99.90
9403;DHT22;4741;49.834;10.740;2022-08-21T03:12:30;15.40;99.90
9403;DHT22;4741;49.834;10.740;2022-08-21T03:14:57;16.10;99.90
9403;DHT22;4741;49.834;10.740;2022-08-21T03:17:24;15.30;99.90
9403;DHT22;4741;49.834;10.740;2022-08-21T03:19:55;15.10;99.90
9403;DHT22;4741;49.834;10.740;2022-08-21T03:22:22;15.20;99.90
9403;DHT22;4741;49.834;10.740;2022-08-21T03:24:49;16.50;99.90
9403;DHT22;4741;49.834;10.740;2022-08-21T03:27:17;15.20;99.90
9403;DHT22;4741;49.834;10.740;2022-08-21T03:29:45;15.20;99.90
9403;DHT22;4741;49.834;10.740;2022-08-21T03:32:12;15.20;99.90
9403;DHT22;4741;49.834;10.740;2022-08-21T03:37:06;15.10;99.90
9403;DHT22;4741;49.834;10.740;2022-08-21T03:39:33;14.60;99.90
9403;DHT22;4741;49.834;10.740;2022-08-21T03:42:00;14.90;99.90
9403;DHT22;4741;49.834;10.740;2022-08-21T03:44:27;17.00;99.90
9403;DHT22;4741;49.834;10.740;2022-08-21T03:46:55;16.30;99.90
9403;DHT22;4741;49.834;10.740;2022-08-21T03:51:50;15.10;99.90
9403;DHT22;4741;49.834;10.740;2022-08-21T03:54:25;16.30;99.90
9403;DHT22;4741;49.834;10.740;2022-08-21T03:56:54;14.90;99.90
9403;DHT22;4741;49.834;10.740;2022-08-21T03:59:21;14.90;99.90
9403;DHT22;4741;49.834;10.740;2022-08-21T04:01:55;14.80;99.90
9403;DHT22;4741;49.834;10.740;2022-08-21T04:04:22;15.10;99.90
9403;DHT22;4741;49.834;10.740;2022-08-21T04:06:49;14.60;99.90
9403;DHT22;4741;49.834;10.740;2022-08-21T04:09:16;16.50;99.90
9403;DHT22;4741;49.834;10.740;2022-08-21T04:11:43;16.80;99.90
9403;DHT22;4741;49.834;10.740;2022-08-21T04:14:12;16.40;99.90
9403;DHT22;4741;49.834;10.740;2022-08-21T04:16:40;14.60;99.90
9403;DHT22;4741;49.834;10.740;2022-08-21T04:21:35;14.90;99.90
9403;DHT22;4741;49.834;10.740;2022-08-21T04:24:03;13.80;99.90
9403;DHT22;4741;49.834;10.740;2022-08-21T04:26:30;14.90;99.90
9403;DHT22;4741;49.834;10.740;2022-08-21T04:28:57;16.10;99.90
9403;DHT22;4741;49.834;10.740;2022-08-21T04:31:24;14.10;99.90
9403;DHT22;4741;49.834;10.740;2022-08-21T04:33:51;14.30;99.90
9403;DHT22;4741;49.834;10.740;2022-08-21T04:36:18;14.40;99.90
9403;DHT22;4741;49.834;10.740;2022-08-21T04:38:49;14.00;99.90
9403;DHT22;4741;49.834;10.740;2022-08-21T04:41:16;14.90;99.90
9403;DHT22;4741;49.834;10.740;2022-08-21T04:43:53;14.20;99.90
9403;DHT22;4741;49.834;10.740;2022-08-21T04:46:21;16.20;99.90
9403;DHT22;4741;49.834;10.740;2022-08-21T04:48:48;14.60;99.90
9403;DHT22;4741;49.834;10.740;2022-08-21T04:54:17;15.10;99.90
9403;DHT22;4741;49.834;10.740;2022-08-21T04:56:47;15.10;99.90
9403;DHT22;4741;49.834;10.740;2022-08-21T04:59:16;16.40;99.90
9403;DHT22;4741;49.834;10.740;2022-08-21T05:01:44;15.70;99.90
9403;DHT22;4741;49.834;10.740;2022-08-21T05:04:12;14.30;99.90
9403;DHT22;4741;49.834;10.740;2022-08-21T05:06:40;14.50;99.90
9403;DHT22;4741;49.834;10.740;2022-08-21T05:09:08;14.70;99.90
9403;DHT22;4741;49.834;10.740;2022-08-21T05:11:35;14.40;99.90
9403;DHT22;4741;49.834;10.740;2022-08-21T05:14:03;14.40;99.90
9403;DHT22;4741;49.834;10.740;2022-08-21T05:16:30;14.30;99.90
9403;DHT22;4741;49.834;10.740;2022-08-21T05:19:06;14.60;99.90
9403;DHT22;4741;49.834;10.740;2022-08-21T05:21:33;15.50;99.90
9403;DHT22;4741;49.834;10.740;2022-08-21T05:24:00;16.30;99.90
9403;DHT22;4741;49.834;10.740;2022-08-21T05:28:54;14.60;99.90
9403;DHT22;4741;49.834;10.740;2022-08-21T05:31:22;14.20;99.90
9403;DHT22;4741;49.834;10.740;2022-08-21T05:33:49;14.90;99.90
9403;DHT22;4741;49.834;10.740;2022-08-21T05:36:17;15.10;99.90
9403;DHT22;4741;49.834;10.740;2022-08-21T05:38:44;16.20;99.90
9403;DHT22;4741;49.834;10.740;2022-08-21T05:41:11;16.90;99.90
9403;DHT22;4741;49.834;10.740;2022-08-21T05:43:38;14.50;99.90
9403;DHT22;4741;49.834;10.740;2022-08-21T05:46:05;15.30;99.90
9403;DHT22;4741;49.834;10.740;2022-08-21T05:48:32;15.00;99.90
9403;DHT22;4741;49.834;10.740;2022-08-21T05:51:04;15.30;99.90
9403;DHT22;4741;49.834;10.740;2022-08-21T05:53:30;15.50;99.90
9403;DHT22;4741;49.834;10.740;2022-08-21T05:55:57;15.20;99.90
9403;DHT22;4741;49.834;10.740;2022-08-21T05:58:24;15.00;99.90
9403;DHT22;4741;49.834;10.740;2022-08-21T06:00:51;14.90;99.90
9403;DHT22;4741;49.834;10.740;2022-08-21T06:03:19;14.70;99.90
9403;DHT22;4741;49.834;10.740;2022-08-21T06:05:46;14.70;99.90
9403;DHT22;4741;49.834;10.740;2022-08-21T06:08:14;17.20;99.90
9403;DHT22;4741;49.834;10.740;2022-08-21T06:10:41;16.60;99.90
9403;DHT22;4741;49.834;10.740;2022-08-21T06:13:08;15.30;99.90
9403;DHT22;4741;49.834;10.740;2022-08-21T06:15:35;16.30;99.90
9403;DHT22;4741;49.834;10.740;2022-08-21T06:18:02;17.10;99.90
9403;DHT22;4741;49.834;10.740;2022-08-21T06:20:29;15.80;99.90
9403;DHT22;4741;49.834;10.740;2022-08-21T06:22:55;15.90;99.90
9403;DHT22;4741;49.834;10.740;2022-08-21T06:25:22;15.20;99.90
9403;DHT22;4741;49.834;10.740;2022-08-21T06:27:49;17.20;99.90
9403;DHT22;4741;49.834;10.740;2022-08-21T06:30:16;17.40;99.90
9403;DHT22;4741;49.834;10.740;2022-08-21T06:32:43;15.20;99.90
9403;DHT22;4741;49.834;10.740;2022-08-21T06:35:10;15.00;99.90
9403;DHT22;4741;49.834;10.740;2022-08-21T06:37:37;17.20;99.90
9403;DHT22;4741;49.834;10.740;2022-08-21T06:40:04;15.90;99.90
9403;DHT22;4741;49.834;10.740;2022-08-21T06:42:38;15.90;99.90
9403;DHT22;4741;49.834;10.740;2022-08-21T06:45:06;17.60;99.90
9403;DHT22;4741;49.834;10.740;2022-08-21T06:47:33;15.80;99.90
9403;DHT22;4741;49.834;10.740;2022-08-21T06:50:00;16.10;99.90
9403;DHT22;4741;49.834;10.740;2022-08-21T06:52:27;16.10;99.90
9403;DHT22;4741;49.834;10.740;2022-08-21T06:54:53;16.20;99.90
9403;DHT22;4741;49.834;10.740;2022-08-21T07:02:15;16.40;99.90
9403;DHT22;4741;49.834;10.740;2022-08-21T07:04:41;18.30;99.90
9403;DHT22;4741;49.834;10.740;2022-08-21T07:07:08;17.60;99.90
9403;DHT22;4741;49.834;10.740;2022-08-21T07:09:35;16.30;99.90
9403;DHT22;4741;49.834;10.740;2022-08-21T07:12:01;16.90;99.90
9403;DHT22;4741;49.834;10.740;2022-08-21T07:14:28;16.90;99.90
9403;DHT22;4741;49.834;10.740;2022-08-21T07:16:55;17.00;99.90
9403;DHT22;4741;49.834;10.740;2022-08-21T07:24:16;17.30;99.90
9403;DHT22;4741;49.834;10.740;2022-08-21T07:26:42;18.00;99.90
9403;DHT22;4741;49.834;10.740;2022-08-21T07:29:09;16.60;99.90
9403;DHT22;4741;49.834;10.740;2022-08-21T07:31:36;17.00;99.90
9403;DHT22;4741;49.834;10.740;2022-08-21T07:34:02;17.40;99.90
9403;DHT22;4741;49.834;10.740;2022-08-21T07:36:29;19.10;99.90
9403;DHT22;4741;49.834;10.740;2022-08-21T07:38:58;16.70;99.90
9403;DHT22;4741;49.834;10.740;2022-08-21T07:41:26;17.90;99.90
9403;DHT22;4741;49.834;10.740;2022-08-21T07:43:58;17.50;99.90
9403;DHT22;4741;49.834;10.740;2022-08-21T07:46:25;18.60;99.90
9403;DHT22;4741;49.834;10.740;2022-08-21T07:48:52;18.60;99.90
9403;DHT22;4741;49.834;10.740;2022-08-21T07:51:20;17.80;99.90
9403;DHT22;4741;49.834;10.740;2022-08-21T07:56:15;18.10;99.90
9403;DHT22;4741;49.834;10.740;2022-08-21T07:58:42;18.00;99.90
9403;DHT22;4741;49.834;10.740;2022-08-21T08:01:09;18.20;99.90
9403;DHT22;4741;49.834;10.740;2022-08-21T08:03:35;18.90;99.90
9403;DHT22;4741;49.834;10.740;2022-08-21T08:06:02;18.20;99.90
9403;DHT22;4741;49.834;10.740;2022-08-21T08:08:31;18.10;99.90
9403;DHT22;4741;49.834;10.740;2022-08-21T08:10:58;17.60;99.90
9403;DHT22;4741;49.834;10.740;2022-08-21T08:13:25;18.30;99.90
9403;DHT22;4741;49.834;10.740;2022-08-21T08:15:51;18.40;99.90
9403;DHT22;4741;49.834;10.740;2022-08-21T08:18:18;18.60;99.90
9403;DHT22;4741;49.834;10.740;2022-08-21T08:20:45;18.80;99.90
9403;DHT22;4741;49.834;10.740;2022-08-21T08:23:12;18.90;99.90
9403;DHT22;4741;49.834;10.740;2022-08-21T08:25:39;19.40;99.90
9403;DHT22;4741;49.834;10.740;2022-08-21T08:28:06;19.10;99.90
9403;DHT22;4741;49.834;10.740;2022-08-21T08:30:44;18.80;99.90
9403;DHT22;4741;49.834;10.740;2022-08-21T08:33:10;18.60;99.90
9403;DHT22;4741;49.834;10.740;2022-08-21T08:35:37;17.80;99.90
9403;DHT22;4741;49.834;10.740;2022-08-21T08:43:04;19.00;99.90
9403;DHT22;4741;49.834;10.740;2022-08-21T08:45:32;20.40;99.90
9403;DHT22;4741;49.834;10.740;2022-08-21T08:48:01;19.00;99.90
9403;DHT22;4741;49.834;10.740;2022-08-21T08:50:41;20.10;99.90
9403;DHT22;4741;49.834;10.740;2022-08-21T08:53:14;19.20;99.90
9403;DHT22;4741;49.834;10.740;2022-08-21T08:55:42;19.40;99.90
9403;DHT22;4741;49.834;10.740;2022-08-21T08:58:16;19.70;99.90
9403;DHT22;4741;49.834;10.740;2022-08-21T09:00:45;19.60;99.90
9403;DHT22;4741;49.834;10.740;2022-08-21T09:03:13;20.10;99.90
9403;DHT22;4741;49.834;10.740;2022-08-21T09:08:14;19.80;99.90
9403;DHT22;4741;49.834;10.740;2022-08-21T09:11:00;21.20;99.90
9403;DHT22;4741;49.834;10.740;2022-08-21T09:15:56;20.70;99.90
9403;DHT22;4741;49.834;10.740;2022-08-21T09:18:30;20.90;99.90
9403;DHT22;4741;49.834;10.740;2022-08-21T09:21:04;19.60;99.90
9403;DHT22;4741;49.834;10.740;2022-08-21T09:26:23;21.50;99.90
9403;DHT22;4741;49.834;10.740;2022-08-21T09:28:54;20.60;99.90
9403;DHT22;4741;49.834;10.740;2022-08-21T09:31:29;21.80;99.90
9403;DHT22;4741;49.834;10.740;2022-08-21T09:36:24;21.00;99.90
9403;DHT22;4741;49.834;10.740;2022-08-21T09:38:53;21.10;99.90
9403;DHT22;4741;49.834;10.740;2022-08-21T09:41:26;21.20;99.90
9403;DHT22;4741;49.834;10.740;2022-08-21T09:43:53;22.50;99.90
9403;DHT22;4741;49.834;10.740;2022-08-21T09:46:21;22.40;99.90
9403;DHT22;4741;49.834;10.740;2022-08-21T09:48:49;22.60;99.90
9403;DHT22;4741;49.834;10.740;2022-08-21T09:51:18;22.60;99.90
9403;DHT22;4741;49.834;10.740;2022-08-21T09:53:49;22.70;99.90
9403;DHT22;4741;49.834;10.740;2022-08-21T09:56:21;21.40;99.90
9403;DHT22;4741;49.834;10.740;2022-08-21T09:59:14;21.70;99.90
9403;DHT22;4741;49.834;10.740;2022-08-21T10:01:42;21.70;99.90
9403;DHT22;4741;49.834;10.740;2022-08-21T10:04:10;22.00;99.90
9403;DHT22;4741;49.834;10.740;2022-08-21T10:06:37;22.10;99.90
9403;DHT22;4741;49.834;10.740;2022-08-21T10:09:09;22.20;99.90
9403;DHT22;4741;49.834;10.740;2022-08-21T10:11:58;22.20;99.90
9403;DHT22;4741;49.834;10.740;2022-08-21T10:17:23;23.40;99.90
9403;DHT22;4741;49.834;10.740;2022-08-21T10:19:56;22.70;99.90
9403;DHT22;4741;49.834;10.740;2022-08-21T10:22:30;22.90;99.90
9403;DHT22;4741;49.834;10.740;2022-08-21T10:30:31;23.50;99.90
9403;DHT22;4741;49.834;10.740;2022-08-21T10:35:28;23.60;99.90
9403;DHT22;4741;49.834;10.740;2022-08-21T10:48:03;24.60;99.90
9403;DHT22;4741;49.834;10.740;2022-08-21T10:55:34;25.00;99.90
9403;DHT22;4741;49.834;10.740;2022-08-21T10:58:04;25.20;99.90
9403;DHT22;4741;49.834;10.740;2022-08-21T11:08:00;26.00;99.90
9403;DHT22;4741;49.834;10.740;2022-08-21T11:13:15;26.50;99.90
9403;DHT22;4741;49.834;10.740;2022-08-21T11:15:51;26.20;99.90
9403;DHT22;4741;49.834;10.740;2022-08-21T11:18:26;26.40;99.90
9403;DHT22;4741;49.834;10.740;2022-08-21T11:20:57;26.40;99.90
9403;DHT22;4741;49.834;10.740;2022-08-21T11:23:28;26.40;99.90
9403;DHT22;4741;49.834;10.740;2022-08-21T11:25:58;27.30;99.90
9403;DHT22;4741;49.834;10.740;2022-08-21T11:28:31;27.70;99.90
9403;DHT22;4741;49.834;10.740;2022-08-21T11:31:02;26.70;99.90
9403;DHT22;4741;49.834;10.740;2022-08-21T11:33:36;26.40;99.90
9403;DHT22;4741;49.834;10.740;2022-08-21T11:36:10;25.90;99.90
9403;DHT22;4741;49.834;10.740;2022-08-21T12:08:26;28.70;99.90
9403;DHT22;4741;49.834;10.740;2022-08-21T12:39:36;31.40;99.90
9403;DHT22;4741;49.834;10.740;2022-08-21T12:44:46;32.50;99.90
9403;DHT22;4741;49.834;10.740;2022-08-21T12:47:21;31.90;99.90
9403;DHT22;4741;49.834;10.740;2022-08-21T12:57:47;31.70;99.90
9403;DHT22;4741;49.834;10.740;2022-08-21T13:00:19;31.90;99.90
9403;DHT22;4741;49.834;10.740;2022-08-21T13:05:30;31.80;99.90
9403;DHT22;4741;49.834;10.740;2022-08-21T13:16:12;31.70;99.90
9403;DHT22;4741;49.834;10.740;2022-08-21T13:21:10;33.40;90.80
9403;DHT22;4741;49.834;10.740;2022-08-21T13:23:46;33.20;90.80
9403;DHT22;4741;49.834;10.740;2022-08-21T13:26:22;33.00;88.30
9403;DHT22;4741;49.834;10.740;2022-08-21T13:28:49;32.80;88.70
9403;DHT22;4741;49.834;10.740;2022-08-21T13:31:17;32.00;87.30
9403;DHT22;4741;49.834;10.740;2022-08-21T13:33:44;32.80;88.40
9403;DHT22;4741;49.834;10.740;2022-08-21T13:38:39;34.90;77.80
9403;DHT22;4741;49.834;10.740;2022-08-21T13:43:34;33.40;79.20
9403;DHT22;4741;49.834;10.740;2022-08-21T13:46:02;32.70;74.30
9403;DHT22;4741;49.834;10.740;2022-08-21T13:48:33;33.10;72.10
9403;DHT22;4741;49.834;10.740;2022-08-21T13:51:00;34.30;72.80
9403;DHT22;4741;49.834;10.740;2022-08-21T13:53:29;33.10;73.60
9403;DHT22;4741;49.834;10.740;2022-08-21T13:55:57;33.80;72.10
9403;DHT22;4741;49.834;10.740;2022-08-21T13:58:30;33.10;72.60
9403;DHT22;4741;49.834;10.740;2022-08-21T14:00:58;32.60;71.60
9403;DHT22;4741;49.834;10.740;2022-08-21T14:06:02;34.50;69.40
9403;DHT22;4741;49.834;10.740;2022-08-21T14:08:31;33.40;68.70
9403;DHT22;4741;49.834;10.740;2022-08-21T14:10:59;33.30;69.70
9403;DHT22;4741;49.834;10.740;2022-08-21T14:13:35;34.40;70.50
9403;DHT22;4741;49.834;10.740;2022-08-21T14:16:20;33.60;67.10
9403;DHT22;4741;49.834;10.740;2022-08-21T14:21:22;34.70;69.00
9403;DHT22;4741;49.834;10.740;2022-08-21T14:26:17;35.40;63.90
9403;DHT22;4741;49.834;10.740;2022-08-21T14:28:43;35.40;69.80
9403;DHT22;4741;49.834;10.740;2022-08-21T14:31:12;34.00;62.70
9403;DHT22;4741;49.834;10.740;2022-08-21T14:33:39;34.00;62.40
9403;DHT22;4741;49.834;10.740;2022-08-21T14:36:06;34.10;61.60
9403;DHT22;4741;49.834;10.740;2022-08-21T14:41:03;30.70;73.00
9403;DHT22;4741;49.834;10.740;2022-08-21T14:43:30;30.60;91.40
9403;DHT22;4741;49.834;10.740;2022-08-21T14:45:57;32.30;68.10
9403;DHT22;4741;49.834;10.740;2022-08-21T14:48:24;32.70;67.30
9403;DHT22;4741;49.834;10.740;2022-08-21T14:50:50;31.60;67.10
9403;DHT22;4741;49.834;10.740;2022-08-21T14:53:25;32.00;70.90
9403;DHT22;4741;49.834;10.740;2022-08-21T14:55:51;32.10;75.70
9403;DHT22;4741;49.834;10.740;2022-08-21T14:58:44;31.70;78.70
9403;DHT22;4741;49.834;10.740;2022-08-21T15:01:15;31.50;80.10
9403;DHT22;4741;49.834;10.740;2022-08-21T15:03:48;30.20;82.90
9403;DHT22;4741;49.834;10.740;2022-08-21T15:06:16;28.90;85.30
9403;DHT22;4741;49.834;10.740;2022-08-21T15:08:43;29.60;87.40
9403;DHT22;4741;49.834;10.740;2022-08-21T15:11:16;27.60;86.90
9403;DHT22;4741;49.834;10.740;2022-08-21T15:14:05;29.20;84.30
9403;DHT22;4741;49.834;10.740;2022-08-21T15:16:33;32.50;79.10
9403;DHT22;4741;49.834;10.740;2022-08-21T15:19:00;33.60;75.80
9403;DHT22;4741;49.834;10.740;2022-08-21T15:21:27;34.30;73.90
9403;DHT22;4741;49.834;10.740;2022-08-21T15:23:53;34.20;71.10
9403;DHT22;4741;49.834;10.740;2022-08-21T15:26:21;34.60;86.10
9403;DHT22;4741;49.834;10.740;2022-08-21T15:31:15;35.60;99.90
9403;DHT22;4741;49.834;10.740;2022-08-21T15:33:42;35.90;76.10
9403;DHT22;4741;49.834;10.740;2022-08-21T15:36:11;35.40;66.10
9403;DHT22;4741;49.834;10.740;2022-08-21T15:38:38;34.70;66.00
9403;DHT22;4741;49.834;10.740;2022-08-21T15:41:05;32.50;67.90
9403;DHT22;4741;49.834;10.740;2022-08-21T15:43:48;29.40;79.10
9403;DHT22;4741;49.834;10.740;2022-08-21T15:46:23;28.20;80.00
9403;DHT22;4741;49.834;10.740;2022-08-21T15:48:51;29.70;90.40
9403;DHT22;4741;49.834;10.740;2022-08-21T15:51:23;28.60;79.70
9403;DHT22;4741;49.834;10.740;2022-08-21T15:53:49;30.80;75.70
9403;DHT22;4741;49.834;10.740;2022-08-21T15:56:23;32.10;67.60
9403;DHT22;4741;49.834;10.740;2022-08-21T15:58:51;32.20;68.10
9403;DHT22;4741;49.834;10.740;2022-08-21T16:01:21;32.90;69.40
9403;DHT22;4741;49.834;10.740;2022-08-21T16:03:49;32.90;68.50
9403;DHT22;4741;49.834;10.740;2022-08-21T16:06:16;32.80;70.40
9403;DHT22;4741;49.834;10.740;2022-08-21T16:09:03;33.30;70.00
9403;DHT22;4741;49.834;10.740;2022-08-21T16:11:30;32.90;65.70
9403;DHT22;4741;49.834;10.740;2022-08-21T16:13:57;33.50;64.50
9403;DHT22;4741;49.834;10.740;2022-08-21T16:16:24;34.80;66.20
9403;DHT22;4741;49.834;10.740;2022-08-21T16:18:51;32.90;64.50
9403;DHT22;4741;49.834;10.740;2022-08-21T16:21:20;32.80;62.90
9403;DHT22;4741;49.834;10.740;2022-08-21T16:23:47;31.90;66.20
9403;DHT22;4741;49.834;10.740;2022-08-21T16:26:14;32.60;66.90
9403;DHT22;4741;49.834;10.740;2022-08-21T16:28:44;33.10;67.50
9403;DHT22;4741;49.834;10.740;2022-08-21T16:31:13;33.40;64.50
9403;DHT22;4741;49.834;10.740;2022-08-21T16:33:42;33.90;64.80
9403;DHT22;4741;49.834;10.740;2022-08-21T16:36:10;33.80;61.60
9403;DHT22;4741;49.834;10.740;2022-08-21T16:38:37;33.40;62.30
9403;DHT22;4741;49.834;10.740;2022-08-21T16:41:05;33.80;61.30
9403;DHT22;4741;49.834;10.740;2022-08-21T16:43:33;31.80;62.90
9403;DHT22;4741;49.834;10.740;2022-08-21T16:53:11;29.20;71.20
9403;DHT22;4741;49.834;10.740;2022-08-21T16:59:21;27.50;71.80
9403;DHT22;4741;49.834;10.740;2022-08-21T17:02:00;27.40;72.50
9403;DHT22;4741;49.834;10.740;2022-08-21T17:04:27;27.50;77.00
9403;DHT22;4741;49.834;10.740;2022-08-21T17:06:54;26.90;77.50
9403;DHT22;4741;49.834;10.740;2022-08-21T17:11:48;26.70;76.90
9403;DHT22;4741;49.834;10.740;2022-08-21T17:14:19;27.20;79.60
9403;DHT22;4741;49.834;10.740;2022-08-21T17:16:47;26.40;80.60
9403;DHT22;4741;49.834;10.740;2022-08-21T17:19:15;26.30;81.20
9403;DHT22;4741;49.834;10.740;2022-08-21T17:21:41;25.20;81.30
9403;DHT22;4741;49.834;10.740;2022-08-21T17:24:10;26.80;86.70
9403;DHT22;4741;49.834;10.740;2022-08-21T17:26:41;25.80;99.20
9403;DHT22;4741;49.834;10.740;2022-08-21T17:29:08;27.60;96.20
9403;DHT22;4741;49.834;10.740;2022-08-21T17:31:38;28.00;98.60
9403;DHT22;4741;49.834;10.740;2022-08-21T17:34:05;27.30;85.80
9403;DHT22;4741;49.834;10.740;2022-08-21T17:36:32;25.50;84.40
9403;DHT22;4741;49.834;10.740;2022-08-21T17:38:59;26.50;85.90
9403;DHT22;4741;49.834;10.740;2022-08-21T17:41:26;25.60;87.70
9403;DHT22;4741;49.834;10.740;2022-08-21T17:43:53;25.10;87.50
9403;DHT22;4741;49.834;10.740;2022-08-21T17:46:22;25.70;90.80
9403;DHT22;4741;49.834;10.740;2022-08-21T17:48:49;25.70;91.10
9403;DHT22;4741;49.834;10.740;2022-08-21T17:51:16;26.00;91.60
9403;DHT22;4741;49.834;10.740;2022-08-21T17:53:43;25.70;92.10
9403;DHT22;4741;49.834;10.740;2022-08-21T17:56:11;26.00;92.50
9403;DHT22;4741;49.834;10.740;2022-08-21T17:58:40;24.90;93.10
9403;DHT22;4741;49.834;10.740;2022-08-21T18:01:23;24.30;93.10
9403;DHT22;4741;49.834;10.740;2022-08-21T18:03:51;24.30;93.40
9403;DHT22;4741;49.834;10.740;2022-08-21T18:06:18;23.80;93.80
9403;DHT22;4741;49.834;10.740;2022-08-21T18:08:45;23.80;94.70
9403;DHT22;4741;49.834;10.740;2022-08-21T18:11:13;23.80;95.90
9403;DHT22;4741;49.834;10.740;2022-08-21T18:13:49;23.30;94.60
9403;DHT22;4741;49.834;10.740;2022-08-21T18:16:17;23.00;95.00
9403;DHT22;4741;49.834;10.740;2022-08-21T18:18:45;22.90;95.80
9403;DHT22;4741;49.834;10.740;2022-08-21T18:21:14;22.70;95.80
9403;DHT22;4741;49.834;10.740;2022-08-21T18:23:40;22.40;96.40
9403;DHT22;4741;49.834;10.740;2022-08-21T18:26:12;22.10;98.40
9403;DHT22;4741;49.834;10.740;2022-08-21T18:28:39;22.80;99.30
9403;DHT22;4741;49.834;10.740;2022-08-21T18:33:35;21.60;99.90
9403;DHT22;4741;49.834;10.740;2022-08-21T18:36:02;21.40;99.90
9403;DHT22;4741;49.834;10.740;2022-08-21T18:38:30;21.40;99.90
9403;DHT22;4741;49.834;10.740;2022-08-21T18:40:56;21.40;99.90
9403;DHT22;4741;49.834;10.740;2022-08-21T18:43:25;21.90;99.90
9403;DHT22;4741;49.834;10.740;2022-08-21T18:45:52;20.20;99.90
9403;DHT22;4741;49.834;10.740;2022-08-21T18:48:19;19.30;99.90
9403;DHT22;4741;49.834;10.740;2022-08-21T18:50:46;20.70;99.90
9403;DHT22;4741;49.834;10.740;2022-08-21T18:53:13;21.00;99.90
9403;DHT22;4741;49.834;10.740;2022-08-21T18:55:52;20.90;99.90
9403;DHT22;4741;49.834;10.740;2022-08-21T18:58:22;21.30;99.90
9403;DHT22;4741;49.834;10.740;2022-08-21T19:00:49;21.90;99.90
9403;DHT22;4741;49.834;10.740;2022-08-21T19:03:18;20.90;99.90
9403;DHT22;4741;49.834;10.740;2022-08-21T19:06:05;21.80;99.90
9403;DHT22;4741;49.834;10.740;2022-08-21T19:11:04;20.30;99.90
9403;DHT22;4741;49.834;10.740;2022-08-21T19:13:32;21.40;99.90
9403;DHT22;4741;49.834;10.740;2022-08-21T19:15:59;20.90;99.90
9403;DHT22;4741;49.834;10.740;2022-08-21T19:18:29;21.00;99.90
9403;DHT22;4741;49.834;10.740;2022-08-21T19:20:57;21.50;99.90
9403;DHT22;4741;49.834;10.740;2022-08-21T19:23:24;20.10;99.90
9403;DHT22;4741;49.834;10.740;2022-08-21T19:26:13;19.30;99.90
9403;DHT22;4741;49.834;10.740;2022-08-21T19:28:44;20.20;99.90